Timeline UpdatesTrip UpdatesNews PostsPvt PostsTravel TipsAdmin PostsConv PostsFollowed PostsChat RequestsBlog PostsPNR Posts

Disclaimer
Search
 
 
Tue Sep 2, 2014 22:18:17 ISTHomeTrainsΣChainsAtlasPNRForumGalleryNewsFAQTripsMembersLoginFeedback
No Recent News for this Train
Other Trains in the News **new
Latest...
.
Sat Feb 22, 2014 (10:28PM)
⇐ Return Journey: Train# 58111

58112/Itwari-Tatanagar Jn Passenger

OLD Time-Table. Click here to UPDATE TT
Feb 22 2014 (10:27PM)
Change Departure Station:
Change Arrival Station:
Post a Train Travel TipPost a Train Travel Tip **new
Post a Comment/Question/Picture/VideoPost a Comment/Question/Picture/Video
Pantry/Catering
✕ NO Pantry Car
✕ NO Catering
RSA - Rake Sharing
Rake/Coach Composition
ENG:SLR-1 UR-3 SL-4 UR-3 VP-1 SLR-1; Entry# 189608 ; Author: sunilsagitarius
Loco
WAM-4 TATA Shed; Entry# 545455
News    PNR    Forum    Time-Table    Availability    Fare Chart    Map    Arr/Dep History    Trips    Gallery    ΣChains    X/O    Timeline    
Travel Time: 12h 58m    58 halts    Distance: 492 km    Avg Speed: 37 km/hr
Type: Passenger
Zone: SER/South Eastern
Departs @ 21:30
Platform# ???
SMTWTFS
Itwari/ITR 
Arrives @ 10:28 +1 night
Platform# ???
SMTWTFS
Sakti/SKT 

58 halts. 66 intermediate Stations between Itwari and Sakti

Show ALL intermediate Stations  

#CodeStation NameX/OArrivesAvgDepartsAvgHaltPFDay#KmSpeedElevZoneAddress
1ITR»Itwari (3)»  -21:30---10.021306mSECRNagpur, Maharashtra
2KAVKalamna (2)  21:38-21:40-2m--12.846296mSECRNagpur, Maharashtra
3KPKamptee (3)X  21:50-21:52-2m--110.528290mSECRMH 441001, Maharashtra
4KNHNKanhan Junction (3)  22:02-22:04-2m--115.286288mSECRKanhan, Maharashtra
5SALSalwa (2)X  22:08-22:10-2m--121.066289mSECRNagpur, Maharashtra
6CHCRChacher (2)O  22:16-22:18-2m--127.563284mSECRNagpur, Maharashtra
7TARTharsa (2)  22:24-22:26-2m--133.868292mSECRNagpur, Maharashtra
8RRLRewral (2)  22:31-22:33-2m--139.577293mSECRNagpur Distt, Maharashtra
9KHATKhat (2)X  22:40-22:42-2m--148.554286mSECRNagpur, Maharashtra
10BRDBhandara Road (2)X  22:53-22:55-2m--158.454266mSECRState Highway 252, Maharashtra
11TMRTumsar Road (3)O  23:15-23:20-5m--176.488267mSECRBhandara, Maharashtra
12MNUMundikota (2)X  23:27-23:29-2m--186.767269mSECRBhandara, Maharashtra
13TROTirora (3)  23:38-23:40-2m--196.768282mSECRDist Gondiya, Maharashtra
14KWNKachewani (3)  23:46-23:48-2m--1103.672303mSECRKachewani, Maharashtra
15GJGangajhari (2)X  23:55-23:57-2m--1111.930315mSECRBhandara, Maharashtra
16GGondia Junction (7)  00:25-00:35-10m32126.089316mSECRGondia 441601, Maharashtra
17GDMGudma (2)  00:43-00:45-2m--2137.973323mSECRGondia, Maharashtra
18AGNAmgaon (2)  00:54-00:56-2m--2148.880317mSECRGondia, Maharashtra
19SKSSalekasa (2)  01:07-01:09-2m--2163.653312mSECRRajnandgaon, Chhattisgarh
20DKSDarekasa (2)  01:22-01:24-2m--2175.166381mSECRRajnandgaon, Chhattisgarh
21BTLBortalao (2)X  01:31-01:33-2m--2182.853409mSECRRajnandgaon, Chhattisgarh
22PJBPaniajob (2)X  01:43-01:45-2m--2191.631398mSECRRajnandgaon, Chhattisgarh
23DGGDongargarh (2)  02:00-02:10-10m--2199.398353mSECRDongargarh, Chhattisgarh
24JTRJatkanhar  02:14-02:16-2m--2205.866330mSECRRajnandgaon, Chhattisgarh
25MUAMusra  02:22-02:24-2m--2212.569325mSECRRajnandgaon, Chhattisgarh
26RJNRaj Nandgaon (3)  02:40-02:45-5m--2230.8100313mSECRRajnandgaon, Chhattisgarh
27MUPMurhipar  02:54-02:56-2m--2245.816319mSECRRajnandgaon, Chhattisgarh
28DURGDurg Junction (6)X  03:55-04:00-5m--2261.345299mSECRPh: 91-788-2322059, Chhattisgarh
29BQRBhilai Nagar (2)  04:06-04:07-1m--2265.866298mSECRBhilai, Chhattisgarh
30BPHBBhilai Power House (3)  04:11-04:13-2m--2270.256312mSECRBhilai, Chhattisgarh
31BIABhilai (2)  04:18-04:20-2m--2274.952309mSECRBhilai, Chhattisgarh
32DBECDevbaloda Charoda  04:24-04:26-2m--2278.323310mSECRBhilai, Chhattisgarh
33KMIKumhari (2)X  04:46-04:48-2m--2285.851287mSECRKumhari, Chhattisgarh
34SRWNSaraswatinagar (2)  05:00-05:01-1m--2296.010291mSECRRaipur, Chhattisgarh
35RRaipur Junction (6)X  05:15-05:35-20m--2298.252297mSECRRaipur, Chhattisgarh
36WRCWRS Colony PH  05:38-05:40-2m--2300.830286mSECRRaipur, Chhattisgarh
37URKUrkura  05:46-05:48-2m--2303.973275mSECRRaipur, Chhattisgarh
38MDHMandharX  05:55-05:56-1m--2312.464281mSECRDonde Kalan, Chhattisgarh
39SLHSiliariX  06:05-06:06-1m--2322.056280mSECRBanjari Rd, Chhattisgarh
40BKTHBaikunthX  06:15-06:17-2m--2330.346287mSECRBanjari Rd, Chhattisgarh
41TLDTilda (3)X  06:25-06:27-2m--2336.480291mSECRBanjari Rd, Chhattisgarh
42HNHathbandhX  06:35-06:37-2m--2347.184283mSECRRaipur, Chhattisgarh
43BYTBhatapara (4)X  06:48-06:50-2m--2362.559270mSECRBanjari Road, Chhattisgarh
44NPINipania  07:05-07:06-1m--2377.255259mSECRNational Highway 200, Chhattisgarh
45DGSDagoriX  07:15-07:16-1m--2385.592254mSECRCollege Road, Chhattisgarh
46BYLBelha  07:21-07:23-2m--2393.170269mSECRCollege Road, Chhattisgarh
47CHBTChakarbhathaX  07:28-07:30-2m--2399.037285mSECRBilaspur, Chhattisgarh
48DPHDadhapara (3)XO  07:35-07:37-2m--2402.08272mSECRBilaspur, Chhattisgarh
49BSPBilaspur Junction (8)X  08:25-08:40-15m22408.748271mSECRBilaspur, Chhattisgarh
50GTWGatoraX  08:48-08:50-2m--2415.157268mSECRBilaspur, Chhattisgarh
51JRMGJairamnagarX  08:58-09:00-2m--2422.867272mSECRNational Highway 200, Chhattisgarh
52KTSHKotmi Sonar HaltX  09:06-09:08-2m--2429.564266mSECRKotmisunar, Chhattisgarh
53AKTAkaltara (4)X  09:14-09:16-2m--2435.966284mSECRDist. Janjgir Champa, Chhattisgarh
54KPNAKapan (1)XO  09:23-09:25-2m12443.648263mSECRNational Highway 200, Chhattisgarh
55NIANailaX  09:34-09:36-2m--2450.834273mSECRJanjgir, Chhattisgarh
56CPHChampa Junction (3)X  09:55-10:00-5m--2461.777264mSECRNational Highway 200 (07819-245767), Chhattisgarh
57SGRDSaragaon Road  10:07-10:08-1m--2470.698254mSECRNational Highway 200, Chhattisgarh
58BUABaradwarX  10:12-10:14-2m--2477.261256mSECRJanjgir-Champa, Chhattisgarh
59JDDAJetha  10:21-10:22-1m--2484.378244mSECRNational Highway 200, Chhattisgarh
60SKT•Sakti (4)•  10:28-10:30-2m--2492.156237mSECRJanjgir-Champa, Chhattisgarh
61JDIJharradih  10:41-10:43-2m--2502.263247mSECRRaigarh, Chhattisgarh
62KHSKharsia  10:48-10:50-2m--2507.573259mSECRNational Highway 200, Chhattisgarh
63ROBRobertson  10:57-10:59-2m--2516.068239mSECRRaigarh, Chhattisgarh
64BEFBhupdeopur  11:07-11:09-2m--2525.079243mSECRRaigarh, Chhattisgarh
65KDTRKirodimalnagar (5)  11:16-11:18-2m--2534.225240mSECRRaigarh, Chhattisgarh
66RIGRaigarh (3)  11:35-11:40-5m--2541.497220mSECRRaigarh, Chhattisgarh
67KRLKotarlia  11:46-11:48-2m--2551.273229mSECRRaigarh, Chhattisgarh
68JMGJamga  11:55-11:57-2m--2559.765233mSECRJamga Station, Chhattisgarh
69DAODaghoraXO  12:08-12:10-2m--2571.634269mSECRRaigarh, Chhattisgarh
70HGRHimgir  12:23-12:25-2m--2579.081275mSECRNational Highway 200, Chhattisgarh
71BPHBelpahar  12:35-12:37-2m--2592.525235mSECRBelpahar, Odisha
72BRJNBrajrajnagarO  12:58-13:00-2m--2601.46212mSECRBrajrajnagar, Odisha
73IBIbXO  13:28-13:30-2m--2604.18207mSECRJharsuguda, Odisha
74JSGJharsuguda Junction (5)X  14:35-14:55-20m--2613.157236mSERJharsuguda, Odisha
75DTVDhutraX  15:04-15:05-1m--2621.747240mSERJharsuguda, Odisha
76PNPLPanpaliX  15:12-15:13-1m--2627.156258mSERJharsuguda, Odisha
77BEHBagdihi (3)O  15:20-15:21-1m--2633.754254mSERState Highway 24 PH: 06640-286227, Odisha
78DIHDharuadihi  15:28-15:29-1m--2640.064258mSERSH 24, Odisha
79BMBBamra (3)X  15:38-15:39-1m--2649.656259mSERBamra PH : 06642-229268, Odisha
80TGMTangarmundaX  15:48-15:49-1m--2658.058264mSERSundargarh, Odisha
81GPHGarpos (3)O  15:57-15:58-1m--2665.847278mSERSundargarh, Odisha
82SOGRSogra  16:04-16:05-1m--2670.555293mSERState Highway 10, Odisha
83SXNSonakhan  16:12-16:13-1m--2676.955249mSERSundargarh, Odisha
84GPRaj Gangpur (3)  16:21-16:22-1m--2684.255237mSERRaj Ganpur, Odisha
85KXNKanshbahal  16:32-16:33-1m--2693.453220mSERSundargarh, Odisha
86KLGKalunga  16:41-16:42-1m--2700.550203mSERSundargarh, Odisha
87PPOPanposh (2)X  16:51-16:52-1m--2708.08190mSERRourkela, Odisha
88ROURourkela Junction (5)X  17:40-18:40-60m42714.030198mSERRourkela, Odisha
89BNDMBondamunda (2)  18:53-18:54-1m--2720.541213mSERRourkela, Odisha
90BZRBisra  19:05-19:06-1m--2728.158224mSERSundargarh, Odisha
91BULBhalulata  19:13-19:14-1m--2734.950239mSERRourkela, Jharkhand
92JRAJaraikelaX  19:23-19:24-1m--2742.468215mSERJaraikela Station, Jharkhand
93MOUManoharpurX  19:34-19:35-1m--2753.839228mSERManoharpur, Jharkhand
94PSTPosotia (4)X  19:52-19:53-1m--2764.851279mSERPosotia Station, Jharkhand
95DRWNDerowan P. HaltX  20:01-20:02-1m--2771.636275mSERDerowan, Jharkhand
96GOLGoilkera (2)  20:18-20:19-1m--2781.351333mSERGoilkera, Jharkhand
97TUXTunia  20:27-20:28-1m--2788.145297mSERTunia Station, Jharkhand
98SWRSonua  20:36-20:37-1m--2794.169287mSERSonua, Jharkhand
99LPHLotapahar  20:47-20:48-1m--2805.526251mSERLotapahar Station, Jharkhand
100CKPChakradharpur (3)X  21:10-21:50-40m--2815.164235mSERChakradharpur (West Singhbhum), Jharkhand
101BRMBarabamboX  22:00-22:01-1m--2825.756213mSERBarabambo Station, Jharkhand
102RKSNRajkharsawan Junction (3)  22:11-22:12-1m--2835.150189mSERSaraikela Kharswan District, Jharkhand
103MMVMahali Marup (2)  22:21-22:22-1m--2842.651183mSERMahali Marup Station, Jharkhand
104SINISini Junction (3)  22:31-22:32-1m22850.348182mSERNational Highway 33, Jharkhand
105BRBSBirbans  22:41-22:42-1m--2857.654171mSERBirbans, Jharkhand
106GMHGamharia (3)X  22:52-22:53-1m22866.640165mSERJamshedpur, Jharkhand
107ADTPAdityapur (3)  23:02-23:03-1m22872.75152mSERJamshedpur, Jharkhand
108TATATatanagar Junction (5)  00:05--43877.3-164mSER91-657-2423026, Jharkhand
Scroll to Top
Scroll to Bottom